createdAt,value
2022-08-12T00:01:04.077Z,21.10
2022-08-12T00:03:50.184Z,21.20
2022-08-12T00:06:37.761Z,21.20
2022-08-12T00:09:26.430Z,21.20
2022-08-12T00:12:12.296Z,21.20
2022-08-12T00:15:00.736Z,21.10
2022-08-12T00:17:46.813Z,21.10
2022-08-12T00:20:32.750Z,21.10
2022-08-12T00:23:18.176Z,21.00
2022-08-12T00:26:22.342Z,20.90
2022-08-12T00:29:11.839Z,20.90
2022-08-12T00:32:01.014Z,20.90
2022-08-12T00:34:49.147Z,20.80
2022-08-12T00:37:35.841Z,20.70
2022-08-12T00:40:22.324Z,20.60
2022-08-12T00:42:49.310Z,20.60
2022-08-12T00:45:17.269Z,20.50
2022-08-12T00:47:47.782Z,20.50
2022-08-12T00:50:19.357Z,20.40
2022-08-12T00:52:48.927Z,20.40
2022-08-12T00:55:18.064Z,20.30
2022-08-12T00:57:48.786Z,20.30
2022-08-12T01:00:21.454Z,20.40
2022-08-12T01:02:52.672Z,20.40
2022-08-12T01:05:40.733Z,20.30
2022-08-12T01:08:27.665Z,20.30
2022-08-12T01:11:14.541Z,20.30
2022-08-12T01:13:47.459Z,20.30
2022-08-12T01:16:18.084Z,20.20
2022-08-12T01:18:47.716Z,20.20
2022-08-12T01:21:46.882Z,20.10
2022-08-12T01:24:41.063Z,20.10
2022-08-12T01:27:11.293Z,20.10
2022-08-12T01:29:44.992Z,20.00
2022-08-12T01:32:15.243Z,20.00
2022-08-12T01:34:56.631Z,20.00
2022-08-12T01:37:26.933Z,19.90
2022-08-12T01:40:35.557Z,19.90
2022-08-12T01:42:51.842Z,19.90
2022-08-12T01:45:24.681Z,19.90
2022-08-12T01:48:05.570Z,19.90
2022-08-12T01:50:40.120Z,19.90
2022-08-12T01:53:15.783Z,19.80
2022-08-12T01:55:48.029Z,19.80
2022-08-12T01:58:28.733Z,19.70
2022-08-12T02:01:01.282Z,19.70
2022-08-12T02:03:59.897Z,19.60
2022-08-12T02:06:51.837Z,19.60
2022-08-12T02:09:47.182Z,19.60
2022-08-12T02:12:28.579Z,19.60
2022-08-12T02:15:12.846Z,19.50
2022-08-12T02:17:57.040Z,19.50
2022-08-12T02:20:50.970Z,19.50
2022-08-12T02:23:28.024Z,19.50
2022-08-12T02:26:02.079Z,19.40
2022-08-12T02:28:32.362Z,19.30
2022-08-12T02:31:04.855Z,19.20
2022-08-12T02:33:34.182Z,19.20
2022-08-12T02:36:02.990Z,19.10
2022-08-12T02:38:31.745Z,19.10
2022-08-12T02:41:03.519Z,19.10
2022-08-12T02:43:37.797Z,19.00
2022-08-12T02:46:13.390Z,19.00
2022-08-12T02:48:48.785Z,18.90
2022-08-12T02:51:19.348Z,18.90
2022-08-12T02:54:04.591Z,18.80
2022-08-12T02:56:37.517Z,18.80
2022-08-12T02:59:11.896Z,18.80
2022-08-12T03:01:48.195Z,18.70
2022-08-12T03:04:27.218Z,18.70
2022-08-12T03:07:05.173Z,18.60
2022-08-12T03:09:53.519Z,18.50
2022-08-12T03:12:26.409Z,18.50
2022-08-12T03:15:06.519Z,18.50
2022-08-12T03:17:39.592Z,18.50
2022-08-12T03:20:11.201Z,18.50
2022-08-12T03:22:41.580Z,18.40
2022-08-12T03:25:17.119Z,18.40
2022-08-12T03:27:55.574Z,18.40
2022-08-12T03:30:27.640Z,18.40
2022-08-12T03:32:57.760Z,18.40
2022-08-12T03:35:40.642Z,18.30
2022-08-12T03:38:12.228Z,18.30
2022-08-12T03:41:10.913Z,18.30
2022-08-12T03:44:05.943Z,18.30
2022-08-12T03:47:00.454Z,18.30
2022-08-12T03:49:46.177Z,18.20
2022-08-12T03:52:31.756Z,18.20
2022-08-12T03:55:17.361Z,18.20
2022-08-12T03:58:02.841Z,18.20
2022-08-12T04:00:31.669Z,18.20
2022-08-12T04:03:02.135Z,18.20
2022-08-12T04:05:54.260Z,18.20
2022-08-12T04:08:23.757Z,18.10
2022-08-12T04:11:09.207Z,18.20
2022-08-12T04:13:37.208Z,18.10
2022-08-12T04:16:06.552Z,18.10
2022-08-12T04:18:38.613Z,18.10
2022-08-12T04:21:10.314Z,18.10
2022-08-12T04:23:40.942Z,18.10
2022-08-12T04:26:10.694Z,18.10
2022-08-12T04:28:38.711Z,18.20
2022-08-12T04:31:06.834Z,18.20
2022-08-12T04:33:38.362Z,18.20
2022-08-12T04:36:06.684Z,18.20
2022-08-12T04:38:34.939Z,18.20
2022-08-12T04:41:03.911Z,18.10
2022-08-12T04:44:01.353Z,18.10
2022-08-12T04:46:23.930Z,18.10
2022-08-12T04:48:55.502Z,18.10
2022-08-12T04:51:24.754Z,18.10
2022-08-12T04:53:53.576Z,18.10
2022-08-12T04:56:21.798Z,18.10
2022-08-12T04:58:52.664Z,18.10
2022-08-12T05:01:21.063Z,18.10
2022-08-12T05:03:51.386Z,18.20
2022-08-12T05:06:26.633Z,18.20
2022-08-12T05:08:55.835Z,18.30
2022-08-12T05:11:25.296Z,18.30
2022-08-12T05:13:58.545Z,18.40
2022-08-12T05:16:30.830Z,18.40
2022-08-12T05:18:59.538Z,18.40
2022-08-12T05:21:28.856Z,18.50
2022-08-12T05:23:56.968Z,18.50
2022-08-12T05:26:24.982Z,18.60
2022-08-12T05:28:54.012Z,18.60
2022-08-12T05:31:42.438Z,18.70
2022-08-12T05:34:14.508Z,18.80
2022-08-12T05:36:44.764Z,18.90
2022-08-12T05:39:13.171Z,18.90
2022-08-12T05:41:41.528Z,19.10
2022-08-12T05:44:12.624Z,19.30
2022-08-12T05:46:41.102Z,19.30
2022-08-12T05:49:09.651Z,19.40
2022-08-12T05:51:40.226Z,19.40
2022-08-12T05:54:11.137Z,19.50
2022-08-12T05:56:40.037Z,19.50
2022-08-12T05:59:09.272Z,19.50
2022-08-12T06:02:10.464Z,19.50
2022-08-12T06:04:25.496Z,19.50
2022-08-12T06:06:53.729Z,19.70
2022-08-12T06:09:25.593Z,19.90
2022-08-12T06:12:05.089Z,20.00
2022-08-12T06:14:37.065Z,20.20
2022-08-12T06:17:08.893Z,20.30
2022-08-12T06:20:25.896Z,20.30
2022-08-12T06:22:25.868Z,20.40
2022-08-12T06:24:55.260Z,20.50
2022-08-12T06:27:23.265Z,20.60
2022-08-12T06:30:09.071Z,20.70
2022-08-12T06:32:47.598Z,20.80
2022-08-12T06:35:47.748Z,21.00
2022-08-12T06:38:17.476Z,21.10
2022-08-12T06:41:05.868Z,21.20
2022-08-12T06:44:06.140Z,21.30
2022-08-12T06:46:23.182Z,21.50
2022-08-12T06:48:57.397Z,21.60
2022-08-12T06:51:26.059Z,21.90
2022-08-12T06:53:54.646Z,21.90
2022-08-12T06:56:39.865Z,22.10
2022-08-12T06:59:14.607Z,22.20
2022-08-12T07:01:49.822Z,22.40
2022-08-12T07:04:37.281Z,22.50
2022-08-12T07:07:07.198Z,22.60
2022-08-12T07:10:01.421Z,22.80
2022-08-12T07:12:28.487Z,23.80
2022-08-12T07:14:57.771Z,26.40
2022-08-12T07:17:26.492Z,29.20
2022-08-12T07:19:57.986Z,31.60
2022-08-12T07:25:11.229Z,33.20
2022-08-12T07:27:42.590Z,35.40
2022-08-12T07:30:11.856Z,35.40
2022-08-12T07:32:39.913Z,35.00
2022-08-12T07:35:08.753Z,35.90
2022-08-12T07:37:41.526Z,37.40
2022-08-12T07:40:11.589Z,37.70
2022-08-12T07:42:43.870Z,37.40
2022-08-12T07:45:12.447Z,37.70
2022-08-12T07:47:43.204Z,37.80
2022-08-12T07:50:12.611Z,38.40
2022-08-12T07:52:45.262Z,38.50
2022-08-12T07:55:14.255Z,37.90
2022-08-12T07:57:57.743Z,38.20
2022-08-12T08:00:27.379Z,37.90
2022-08-12T08:02:55.405Z,38.50
2022-08-12T08:05:25.641Z,39.30
2022-08-12T08:08:00.982Z,39.40
2022-08-12T08:10:29.825Z,39.00
2022-08-12T08:12:59.409Z,38.80
2022-08-12T08:15:58.884Z,38.80
2022-08-12T10:10:23.851Z,38.20
2022-08-12T10:13:36.468Z,38.10
2022-08-12T10:16:07.131Z,38.00
2022-08-12T10:18:36.559Z,37.80
2022-08-12T10:21:23.205Z,37.90
2022-08-12T10:23:56.113Z,37.50
2022-08-12T10:26:44.699Z,36.60
2022-08-12T10:30:03.669Z,37.10
2022-08-12T10:38:36.043Z,37.40
2022-08-12T10:40:33.073Z,35.50
2022-08-12T10:43:19.555Z,34.40
2022-08-12T10:45:49.717Z,33.40
2022-08-12T10:48:27.099Z,32.80
2022-08-12T10:52:02.899Z,32.50
2022-08-12T10:54:00.693Z,32.30
2022-08-12T10:56:34.587Z,32.00
2022-08-12T10:59:05.237Z,31.90
2022-08-12T11:04:19.904Z,32.00
2022-08-12T11:04:39.403Z,31.70
2022-08-12T11:08:33.906Z,31.40
2022-08-12T11:10:03.218Z,31.50
2022-08-12T11:12:57.218Z,31.70
2022-08-12T11:15:32.901Z,31.70
2022-08-12T11:18:18.288Z,31.60
2022-08-12T11:20:49.052Z,31.50
2022-08-12T11:23:25.898Z,31.30
2022-08-12T11:26:08.284Z,31.30
2022-08-12T11:28:38.497Z,31.40
2022-08-12T11:31:12.200Z,31.30
2022-08-12T11:34:04.590Z,31.20
2022-08-12T11:36:31.155Z,31.00
2022-08-12T11:39:01.246Z,31.00
2022-08-12T11:41:39.127Z,31.00
2022-08-12T11:44:36.321Z,31.20
2022-08-12T11:46:55.751Z,31.20
2022-08-12T11:49:31.827Z,31.20
2022-08-12T11:52:02.186Z,31.00
2022-08-12T11:54:31.351Z,31.10
2022-08-12T11:57:02.332Z,31.00
2022-08-12T12:02:21.329Z,31.10
2022-08-12T12:04:53.100Z,31.10
2022-08-12T12:08:36.330Z,31.10
2022-08-12T12:10:13.260Z,31.20
2022-08-12T12:12:50.241Z,31.30
2022-08-12T12:15:24.722Z,31.10
2022-08-12T12:17:55.729Z,31.10
2022-08-12T12:20:26.041Z,31.10
2022-08-12T12:22:55.885Z,31.00
2022-08-12T12:25:59.415Z,31.10
2022-08-12T12:28:37.108Z,31.30
2022-08-12T12:31:04.065Z,31.30
2022-08-12T12:33:57.133Z,31.30
2022-08-12T12:36:25.243Z,31.10
2022-08-12T12:38:57.301Z,31.00
2022-08-12T12:42:43.951Z,31.10
2022-08-12T12:44:30.203Z,31.30
2022-08-12T12:47:02.637Z,31.50
2022-08-12T12:49:30.808Z,31.50
2022-08-12T12:52:18.427Z,31.40
2022-08-12T12:54:52.789Z,31.40
2022-08-12T12:57:36.116Z,31.40
2022-08-12T13:00:15.895Z,31.40
2022-08-12T13:02:50.841Z,31.50
2022-08-12T13:05:27.544Z,31.40
2022-08-12T13:08:01.121Z,31.40
2022-08-12T13:10:36.871Z,31.40
2022-08-12T13:14:07.255Z,31.50
2022-08-12T13:16:01.473Z,31.60
2022-08-12T13:18:31.402Z,31.80
2022-08-12T13:20:59.877Z,31.80
2022-08-12T13:23:36.495Z,31.90
2022-08-12T13:26:07.700Z,32.10
2022-08-12T13:28:43.042Z,32.10
2022-08-12T13:31:13.160Z,32.10
2022-08-12T13:34:29.465Z,32.30
2022-08-12T13:36:30.873Z,32.70
2022-08-12T13:38:59.389Z,32.90
2022-08-12T13:41:36.643Z,33.30
2022-08-12T13:44:06.644Z,33.30
2022-08-12T13:46:42.108Z,33.20
2022-08-12T13:49:17.308Z,33.00
2022-08-12T13:51:54.229Z,32.90
2022-08-12T13:54:22.296Z,33.00
2022-08-12T13:56:51.542Z,32.90
2022-08-12T13:59:24.477Z,33.00
2022-08-12T14:01:56.790Z,33.00
2022-08-12T14:04:25.018Z,33.00
2022-08-12T14:06:53.920Z,33.00
2022-08-12T14:09:22.025Z,32.60
2022-08-12T14:11:59.104Z,32.30
2022-08-12T14:14:31.370Z,32.30
2022-08-12T14:17:10.709Z,32.10
2022-08-12T14:20:00.484Z,31.80
2022-08-12T14:22:29.085Z,31.90
2022-08-12T14:24:58.738Z,32.30
2022-08-12T14:28:04.024Z,32.50
2022-08-12T14:30:24.053Z,32.40
2022-08-12T14:33:03.123Z,32.50
2022-08-12T14:35:41.367Z,32.60
2022-08-12T14:38:18.197Z,32.50
2022-08-12T14:40:52.352Z,32.30
2022-08-12T14:43:20.728Z,32.10
2022-08-12T14:45:54.142Z,31.90
2022-08-12T14:48:24.693Z,31.70
2022-08-12T14:52:10.492Z,31.30
2022-08-12T14:54:55.837Z,31.00
2022-08-12T14:56:59.407Z,30.80
2022-08-12T14:59:57.476Z,30.50
2022-08-12T15:02:28.484Z,30.50
2022-08-12T15:05:00.665Z,30.80
2022-08-12T15:07:34.272Z,31.10
2022-08-12T15:10:31.325Z,31.40
2022-08-12T15:13:07.234Z,31.60
2022-08-12T15:15:38.618Z,31.90
2022-08-12T15:18:14.666Z,32.10
2022-08-12T15:20:44.336Z,32.20
2022-08-12T15:23:18.137Z,31.90
2022-08-12T15:26:02.948Z,31.70
2022-08-12T15:28:33.929Z,31.50
2022-08-12T15:31:02.638Z,31.40
2022-08-12T15:33:44.800Z,31.40
2022-08-12T15:36:19.518Z,31.30
2022-08-12T15:39:05.091Z,31.30
2022-08-12T15:41:49.294Z,31.40
2022-08-12T15:44:42.060Z,31.40
2022-08-12T15:47:07.482Z,31.40
2022-08-12T15:49:54.515Z,31.40
2022-08-12T15:52:28.724Z,31.40
2022-08-12T15:54:58.461Z,31.30
2022-08-12T15:57:27.721Z,31.40
2022-08-12T16:00:07.210Z,31.10
2022-08-12T16:02:50.105Z,31.10
2022-08-12T16:06:12.302Z,30.90
2022-08-12T16:08:17.048Z,30.70
2022-08-12T16:10:45.665Z,30.70
2022-08-12T16:13:16.228Z,30.50
2022-08-12T16:16:01.991Z,30.60
2022-08-12T16:18:33.335Z,30.60
2022-08-12T16:21:01.973Z,30.80
2022-08-12T16:23:51.872Z,30.80
2022-08-12T16:26:32.232Z,30.70
2022-08-12T16:29:15.300Z,30.70
2022-08-12T16:31:44.965Z,30.60
2022-08-12T16:34:41.964Z,30.60
2022-08-12T16:37:04.357Z,30.50
2022-08-12T16:39:59.677Z,30.30
2022-08-12T16:42:28.196Z,30.00
2022-08-12T16:44:59.308Z,29.70
2022-08-12T16:47:27.885Z,29.50
2022-08-12T16:49:57.696Z,29.40
2022-08-12T16:52:25.831Z,29.40
2022-08-12T16:54:56.550Z,29.50
2022-08-12T16:57:34.803Z,29.50
2022-08-12T17:00:05.898Z,29.50
2022-08-12T17:02:35.338Z,29.60
2022-08-12T17:05:05.457Z,29.70
2022-08-12T17:07:37.894Z,29.90
2022-08-12T17:10:09.628Z,29.90
2022-08-12T17:12:40.208Z,30.00
2022-08-12T17:15:50.187Z,30.10
2022-08-12T17:18:39.479Z,30.10
2022-08-12T17:20:48.906Z,30.10
2022-08-12T17:23:19.628Z,29.90
2022-08-12T17:25:51.957Z,29.90
2022-08-12T17:28:22.708Z,29.80
2022-08-12T17:30:51.280Z,29.60
2022-08-12T17:33:33.908Z,29.50
2022-08-12T17:36:05.744Z,29.30
2022-08-12T17:38:35.560Z,29.20
2022-08-12T17:41:22.646Z,29.10
2022-08-12T17:43:58.446Z,29.00
2022-08-12T17:46:33.220Z,28.90
2022-08-12T17:49:06.556Z,28.80
2022-08-12T17:52:02.849Z,28.70
2022-08-12T17:54:31.398Z,28.50
2022-08-12T17:57:15.976Z,28.30
2022-08-12T17:59:48.871Z,28.30
2022-08-12T18:02:25.663Z,28.20
2022-08-12T18:05:04.808Z,28.10
2022-08-12T18:07:35.992Z,28.00
2022-08-12T18:10:05.878Z,27.90
2022-08-12T18:12:40.045Z,27.90
2022-08-12T18:15:11.383Z,27.70
2022-08-12T18:18:00.173Z,27.50
2022-08-12T18:20:29.048Z,27.40
2022-08-12T18:22:59.610Z,27.20
2022-08-12T18:26:14.836Z,27.10
2022-08-12T18:28:42.974Z,27.00
2022-08-12T18:31:13.281Z,26.90
2022-08-12T18:33:43.937Z,26.80
2022-08-12T18:36:22.373Z,26.70
2022-08-12T18:38:56.152Z,26.50
2022-08-12T18:41:33.576Z,26.50
2022-08-12T18:44:09.788Z,26.30
2022-08-12T18:46:53.935Z,26.20
2022-08-12T18:49:30.686Z,26.10
2022-08-12T18:52:04.898Z,25.90
2022-08-12T18:54:36.186Z,25.70
2022-08-12T18:57:19.367Z,25.60
2022-08-12T19:00:07.136Z,25.50
2022-08-12T19:02:40.593Z,25.40
2022-08-12T19:05:11.660Z,25.40
2022-08-12T19:07:58.194Z,25.40
2022-08-12T19:10:30.866Z,25.20
2022-08-12T19:13:24.271Z,25.10
2022-08-12T19:15:57.405Z,25.00
2022-08-12T19:18:29.807Z,24.90
2022-08-12T19:21:00.384Z,24.80
2022-08-12T19:23:35.942Z,24.70
2022-08-12T19:26:03.721Z,24.50
2022-08-12T19:28:36.178Z,24.40
2022-08-12T19:31:57.492Z,24.30
2022-08-12T19:37:27.580Z,24.10
2022-08-12T19:40:20.302Z,24.00
2022-08-12T19:43:01.438Z,23.90
2022-08-12T19:45:42.186Z,23.80
2022-08-12T19:48:16.976Z,23.80
2022-08-12T19:50:50.373Z,23.60
2022-08-12T19:53:22.770Z,23.60
2022-08-12T19:55:53.333Z,23.50
2022-08-12T19:58:22.791Z,23.40
2022-08-12T20:00:54.752Z,23.30
2022-08-12T20:03:38.075Z,23.30
2022-08-12T20:06:15.864Z,23.20
2022-08-12T20:08:47.762Z,23.10
2022-08-12T20:12:14.576Z,23.00
2022-08-12T20:14:06.895Z,23.00
2022-08-12T20:16:57.714Z,23.00
2022-08-12T20:19:28.536Z,22.90
2022-08-12T20:22:24.793Z,22.80
2022-08-12T20:25:01.732Z,22.80
2022-08-12T20:28:02.810Z,22.70
2022-08-12T20:30:52.377Z,22.70
2022-08-12T20:33:18.932Z,22.60
2022-08-12T20:36:06.818Z,22.50
2022-08-12T20:38:45.969Z,22.50
2022-08-12T20:41:16.505Z,22.50
2022-08-12T20:43:51.907Z,22.50
2022-08-12T20:46:21.090Z,22.40
2022-08-12T20:48:55.127Z,22.30
2022-08-12T20:51:28.178Z,22.30
2022-08-12T20:54:18.377Z,22.30
2022-08-12T20:56:47.092Z,22.20
2022-08-12T20:59:20.278Z,22.20
2022-08-12T21:01:53.948Z,22.20
2022-08-12T21:04:40.323Z,22.20
2022-08-12T21:07:13.868Z,22.20
2022-08-12T21:09:44.307Z,22.10
2022-08-12T21:12:30.975Z,22.10
2022-08-12T21:15:23.489Z,22.00
2022-08-12T21:18:09.741Z,22.00
2022-08-12T21:20:49.585Z,21.90
2022-08-12T21:23:21.215Z,21.90
2022-08-12T21:25:51.277Z,21.80
2022-08-12T21:28:31.283Z,21.70
2022-08-12T21:32:36.168Z,21.70
2022-08-12T21:34:08.955Z,21.70
2022-08-12T21:36:39.746Z,21.60
2022-08-12T21:39:20.356Z,21.60
2022-08-12T21:41:52.053Z,21.50
2022-08-12T21:44:24.522Z,21.50
2022-08-12T21:47:21.071Z,21.50
2022-08-12T21:49:55.373Z,21.40
2022-08-12T21:52:34.101Z,21.40
2022-08-12T21:55:08.256Z,21.30
2022-08-12T21:57:53.179Z,21.30
2022-08-12T22:00:32.189Z,21.30
2022-08-12T22:03:54.944Z,21.30
2022-08-12T22:06:30.595Z,21.30
2022-08-12T22:09:07.428Z,21.20
2022-08-12T22:11:40.975Z,21.20
2022-08-12T22:14:22.015Z,21.10
2022-08-12T22:16:53.473Z,21.10
2022-08-12T22:19:22.868Z,21.00
2022-08-12T22:21:53.803Z,21.00
2022-08-12T22:24:26.275Z,21.00
2022-08-12T22:27:07.959Z,20.90
2022-08-12T22:30:04.261Z,20.90
2022-08-12T22:32:33.730Z,20.90
2022-08-12T22:35:22.403Z,20.90
2022-08-12T22:37:53.429Z,20.90
2022-08-12T22:40:24.114Z,20.80
2022-08-12T22:43:15.425Z,20.70
2022-08-12T22:46:01.647Z,20.70
2022-08-12T22:48:30.687Z,20.70
2022-08-12T22:50:59.670Z,20.60
2022-08-12T22:53:36.497Z,20.60
2022-08-12T22:56:07.306Z,20.50
2022-08-12T22:58:40.746Z,20.50
2022-08-12T23:01:21.132Z,20.40
2022-08-12T23:04:00.306Z,20.40
2022-08-12T23:06:31.011Z,20.30
2022-08-12T23:08:59.381Z,20.30
2022-08-12T23:11:36.308Z,20.30
2022-08-12T23:14:10.493Z,20.30
2022-08-12T23:16:40.741Z,20.20
2022-08-12T23:19:22.797Z,20.20
2022-08-12T23:22:03.926Z,20.10
2022-08-12T23:24:56.679Z,20.10
2022-08-12T23:27:50.146Z,20.00
2022-08-12T23:30:31.255Z,20.00
2022-08-12T23:33:03.154Z,20.00
2022-08-12T23:35:53.718Z,19.90
2022-08-12T23:38:31.477Z,19.90
2022-08-12T23:41:02.026Z,19.80
2022-08-12T23:43:39.546Z,19.80
2022-08-12T23:46:18.639Z,19.80
2022-08-12T23:48:51.725Z,19.80
2022-08-12T23:51:24.499Z,19.70
2022-08-12T23:53:56.093Z,19.60
2022-08-12T23:56:25.239Z,19.60
2022-08-12T23:58:57.470Z,19.60
